sensor_id;sensor_type;location;lat;lon;timestamp;pressure;altitude;pressure_sealevel;temperature
11926;BMP180;6022;48.768;18.608;2023-04-24T00:00:15;97570.22;;;14.76
11926;BMP180;6022;48.768;18.608;2023-04-24T00:02:45;97569.50;;;14.83
11926;BMP180;6022;48.768;18.608;2023-04-24T00:05:17;97556.22;;;14.80
11926;BMP180;6022;48.768;18.608;2023-04-24T00:07:45;97561.91;;;14.74
11926;BMP180;6022;48.768;18.608;2023-04-24T00:10:12;97562.28;;;14.79
11926;BMP180;6022;48.768;18.608;2023-04-24T00:12:39;97557.47;;;14.76
11926;BMP180;6022;48.768;18.608;2023-04-24T00:15:08;97563.72;;;14.64
11926;BMP180;6022;48.768;18.608;2023-04-24T00:17:35;97562.66;;;14.57
11926;BMP180;6022;48.768;18.608;2023-04-24T00:20:05;97545.59;;;14.58
11926;BMP180;6022;48.768;18.608;2023-04-24T00:22:33;97558.88;;;14.61
11926;BMP180;6022;48.768;18.608;2023-04-24T00:25:01;97545.72;;;14.66
11926;BMP180;6022;48.768;18.608;2023-04-24T00:27:29;97548.09;;;14.67
11926;BMP180;6022;48.768;18.608;2023-04-24T00:29:58;97544.81;;;14.57
11926;BMP180;6022;48.768;18.608;2023-04-24T00:32:26;97537.16;;;14.57
11926;BMP180;6022;48.768;18.608;2023-04-24T00:34:53;97545.47;;;14.59
11926;BMP180;6022;48.768;18.608;2023-04-24T00:37:20;97542.25;;;14.57
11926;BMP180;6022;48.768;18.608;2023-04-24T00:39:48;97525.75;;;14.52
11926;BMP180;6022;48.768;18.608;2023-04-24T00:42:15;97535.84;;;14.53
11926;BMP180;6022;48.768;18.608;2023-04-24T00:44:43;97534.91;;;14.54
11926;BMP180;6022;48.768;18.608;2023-04-24T00:47:12;97535.41;;;14.58
11926;BMP180;6022;48.768;18.608;2023-04-24T00:49:40;97533.72;;;14.49
11926;BMP180;6022;48.768;18.608;2023-04-24T00:52:07;97535.44;;;14.48
11926;BMP180;6022;48.768;18.608;2023-04-24T00:54:38;97530.63;;;14.45
11926;BMP180;6022;48.768;18.608;2023-04-24T00:57:05;97520.78;;;14.50
11926;BMP180;6022;48.768;18.608;2023-04-24T00:59:34;97519.19;;;14.49
11926;BMP180;6022;48.768;18.608;2023-04-24T01:02:02;97531.63;;;14.35
11926;BMP180;6022;48.768;18.608;2023-04-24T01:04:30;97532.44;;;14.36
11926;BMP180;6022;48.768;18.608;2023-04-24T01:06:58;97533.75;;;14.39
11926;BMP180;6022;48.768;18.608;2023-04-24T01:09:25;97526.78;;;14.41
11926;BMP180;6022;48.768;18.608;2023-04-24T01:11:56;97513.34;;;14.39
11926;BMP180;6022;48.768;18.608;2023-04-24T01:14:23;97526.47;;;14.44
11926;BMP180;6022;48.768;18.608;2023-04-24T01:16:51;97525.31;;;14.30
11926;BMP180;6022;48.768;18.608;2023-04-24T01:19:19;97527.88;;;14.30
11926;BMP180;6022;48.768;18.608;2023-04-24T01:21:50;97524.09;;;14.34
11926;BMP180;6022;48.768;18.608;2023-04-24T01:24:32;97522.72;;;14.39
11926;BMP180;6022;48.768;18.608;2023-04-24T01:26:59;97509.69;;;14.42
11926;BMP180;6022;48.768;18.608;2023-04-24T01:29:28;97517.22;;;14.43
11926;BMP180;6022;48.768;18.608;2023-04-24T01:31:55;97517.88;;;14.45
11926;BMP180;6022;48.768;18.608;2023-04-24T01:34:26;97523.00;;;14.45
11926;BMP180;6022;48.768;18.608;2023-04-24T01:36:53;97518.16;;;14.42
11926;BMP180;6022;48.768;18.608;2023-04-24T01:39:21;97513.16;;;14.24
11926;BMP180;6022;48.768;18.608;2023-04-24T01:41:50;97523.88;;;14.27
11926;BMP180;6022;48.768;18.608;2023-04-24T01:44:18;97519.56;;;14.28
11926;BMP180;6022;48.768;18.608;2023-04-24T01:46:45;97511.38;;;14.24
11926;BMP180;6022;48.768;18.608;2023-04-24T01:49:13;97517.97;;;14.27
11926;BMP180;6022;48.768;18.608;2023-04-24T01:51:40;97520.88;;;14.32
11926;BMP180;6022;48.768;18.608;2023-04-24T01:54:08;97507.88;;;14.35
11926;BMP180;6022;48.768;18.608;2023-04-24T01:56:41;97517.41;;;14.33
11926;BMP180;6022;48.768;18.608;2023-04-24T01:59:11;97519.28;;;14.31
11926;BMP180;6022;48.768;18.608;2023-04-24T02:01:39;97507.16;;;14.15
11926;BMP180;6022;48.768;18.608;2023-04-24T02:04:13;97498.31;;;14.10
11926;BMP180;6022;48.768;18.608;2023-04-24T02:06:46;97500.03;;;14.19
11926;BMP180;6022;48.768;18.608;2023-04-24T02:09:17;97502.94;;;14.24
11926;BMP180;6022;48.768;18.608;2023-04-24T02:11:44;97501.47;;;14.21
11926;BMP180;6022;48.768;18.608;2023-04-24T02:14:12;97501.03;;;14.26
11926;BMP180;6022;48.768;18.608;2023-04-24T02:16:40;97500.13;;;14.27
11926;BMP180;6022;48.768;18.608;2023-04-24T02:19:07;97496.59;;;14.28
11926;BMP180;6022;48.768;18.608;2023-04-24T02:21:36;97502.94;;;14.24
11926;BMP180;6022;48.768;18.608;2023-04-24T02:24:04;97492.06;;;14.22
11926;BMP180;6022;48.768;18.608;2023-04-24T02:26:31;97491.72;;;14.07
11926;BMP180;6022;48.768;18.608;2023-04-24T02:28:59;97485.97;;;14.05
11926;BMP180;6022;48.768;18.608;2023-04-24T02:31:27;97483.94;;;14.09
11926;BMP180;6022;48.768;18.608;2023-04-24T02:33:54;97483.94;;;14.09
11926;BMP180;6022;48.768;18.608;2023-04-24T02:36:36;97474.28;;;14.12
11926;BMP180;6022;48.768;18.608;2023-04-24T02:39:03;97468.59;;;14.18
11926;BMP180;6022;48.768;18.608;2023-04-24T02:41:34;97464.16;;;14.20
11926;BMP180;6022;48.768;18.608;2023-04-24T02:44:01;97464.03;;;14.22
11926;BMP180;6022;48.768;18.608;2023-04-24T02:46:28;97456.09;;;14.25
11926;BMP180;6022;48.768;18.608;2023-04-24T02:48:56;97463.44;;;14.28
11926;BMP180;6022;48.768;18.608;2023-04-24T02:51:23;97454.56;;;14.32
11926;BMP180;6022;48.768;18.608;2023-04-24T02:53:51;97453.84;;;14.39
11926;BMP180;6022;48.768;18.608;2023-04-24T02:56:18;97440.94;;;14.40
11926;BMP180;6022;48.768;18.608;2023-04-24T02:58:46;97442.25;;;14.44
11926;BMP180;6022;48.768;18.608;2023-04-24T03:01:14;97448.03;;;14.46
11926;BMP180;6022;48.768;18.608;2023-04-24T03:03:41;97443.75;;;14.47
11926;BMP180;6022;48.768;18.608;2023-04-24T03:06:09;97437.53;;;14.49
11926;BMP180;6022;48.768;18.608;2023-04-24T03:08:36;97447.09;;;14.47
11926;BMP180;6022;48.768;18.608;2023-04-24T03:11:04;97444.53;;;14.47
11926;BMP180;6022;48.768;18.608;2023-04-24T03:13:32;97441.59;;;14.42
11926;BMP180;6022;48.768;18.608;2023-04-24T03:16:00;97448.03;;;14.46
11926;BMP180;6022;48.768;18.608;2023-04-24T03:18:27;97445.63;;;14.45
11926;BMP180;6022;48.768;18.608;2023-04-24T03:20:55;97452.34;;;14.46
11926;BMP180;6022;48.768;18.608;2023-04-24T03:23:22;97454.75;;;14.47
11926;BMP180;6022;48.768;18.608;2023-04-24T03:25:49;97460.44;;;14.41
11926;BMP180;6022;48.768;18.608;2023-04-24T03:28:17;97457.50;;;14.36
11926;BMP180;6022;48.768;18.608;2023-04-24T03:30:46;97452.91;;;14.40
11926;BMP180;6022;48.768;18.608;2023-04-24T03:33:14;97442.19;;;14.36
11926;BMP180;6022;48.768;18.608;2023-04-24T03:35:42;97447.28;;;14.36
11926;BMP180;6022;48.768;18.608;2023-04-24T03:38:10;97452.97;;;14.31
11926;BMP180;6022;48.768;18.608;2023-04-24T03:40:37;97463.63;;;14.26
11926;BMP180;6022;48.768;18.608;2023-04-24T03:43:05;97455.72;;;14.20
11926;BMP180;6022;48.768;18.608;2023-04-24T03:45:34;97436.09;;;14.20
11926;BMP180;6022;48.768;18.608;2023-04-24T03:48:02;97439.75;;;14.18
11926;BMP180;6022;48.768;18.608;2023-04-24T03:50:32;97440.53;;;14.18
11926;BMP180;6022;48.768;18.608;2023-04-24T03:53:02;97440.44;;;14.10
11926;BMP180;6022;48.768;18.608;2023-04-24T03:55:43;97451.44;;;14.11
11926;BMP180;6022;48.768;18.608;2023-04-24T03:58:13;97447.88;;;14.04
11926;BMP180;6022;48.768;18.608;2023-04-24T04:00:41;97443.44;;;14.06
11926;BMP180;6022;48.768;18.608;2023-04-24T04:03:09;97451.22;;;13.95
11926;BMP180;6022;48.768;18.608;2023-04-24T04:05:37;97437.16;;;13.91
11926;BMP180;6022;48.768;18.608;2023-04-24T04:08:07;97442.75;;;13.68
11926;BMP180;6022;48.768;18.608;2023-04-24T04:10:42;97434.06;;;13.61
11926;BMP180;6022;48.768;18.608;2023-04-24T04:13:12;97431.00;;;13.58
11926;BMP180;6022;48.768;18.608;2023-04-24T04:15:40;97423.78;;;13.44
11926;BMP180;6022;48.768;18.608;2023-04-24T04:18:08;97421.63;;;13.49
11926;BMP180;6022;48.768;18.608;2023-04-24T04:20:35;97406.34;;;13.49
11926;BMP180;6022;48.768;18.608;2023-04-24T04:23:03;97419.38;;;13.46
11926;BMP180;6022;48.768;18.608;2023-04-24T04:25:36;97422.59;;;13.48
11926;BMP180;6022;48.768;18.608;2023-04-24T04:28:03;97429.38;;;13.57
11926;BMP180;6022;48.768;18.608;2023-04-24T04:30:31;97426.44;;;13.52
11926;BMP180;6022;48.768;18.608;2023-04-24T04:32:59;97434.63;;;13.55
11926;BMP180;6022;48.768;18.608;2023-04-24T04:35:27;97433.53;;;13.58
11926;BMP180;6022;48.768;18.608;2023-04-24T04:37:55;97436.34;;;13.55
11926;BMP180;6022;48.768;18.608;2023-04-24T04:40:25;97436.09;;;13.58
11926;BMP180;6022;48.768;18.608;2023-04-24T04:42:54;97433.66;;;13.56
11926;BMP180;6022;48.768;18.608;2023-04-24T04:45:21;97434.75;;;13.54
11926;BMP180;6022;48.768;18.608;2023-04-24T04:47:51;97432.75;;;13.57
11926;BMP180;6022;48.768;18.608;2023-04-24T04:50:18;97426.41;;;13.61
11926;BMP180;6022;48.768;18.608;2023-04-24T04:52:46;97420.00;;;13.57
11926;BMP180;6022;48.768;18.608;2023-04-24T04:55:13;97411.72;;;13.46
11926;BMP180;6022;48.768;18.608;2023-04-24T04:57:41;97414.09;;;13.47
11926;BMP180;6022;48.768;18.608;2023-04-24T05:00:09;97412.38;;;13.48
11926;BMP180;6022;48.768;18.608;2023-04-24T05:02:38;97414.75;;;13.58
11926;BMP180;6022;48.768;18.608;2023-04-24T05:05:07;97418.34;;;13.65
11926;BMP180;6022;48.768;18.608;2023-04-24T05:07:35;97405.56;;;13.75
11926;BMP180;6022;48.768;18.608;2023-04-24T05:10:03;97409.44;;;13.79
11926;BMP180;6022;48.768;18.608;2023-04-24T05:12:31;97407.16;;;13.85
11926;BMP180;6022;48.768;18.608;2023-04-24T05:14:58;97404.22;;;13.80
11926;BMP180;6022;48.768;18.608;2023-04-24T05:17:25;97410.22;;;13.79
11926;BMP180;6022;48.768;18.608;2023-04-24T05:19:53;97404.38;;;13.69
11926;BMP180;6022;48.768;18.608;2023-04-24T05:22:20;97405.16;;;13.70
11926;BMP180;6022;48.768;18.608;2023-04-24T05:24:49;97412.69;;;13.71
11926;BMP180;6022;48.768;18.608;2023-04-24T05:27:17;97418.34;;;13.65
11926;BMP180;6022;48.768;18.608;2023-04-24T05:29:44;97412.22;;;13.49
11926;BMP180;6022;48.768;18.608;2023-04-24T05:32:14;97415.03;;;13.56
11926;BMP180;6022;48.768;18.608;2023-04-24T05:34:43;97427.47;;;13.58
11926;BMP180;6022;48.768;18.608;2023-04-24T05:37:11;97415.72;;;13.48
11926;BMP180;6022;48.768;18.608;2023-04-24T05:39:39;97424.34;;;13.28
11926;BMP180;6022;48.768;18.608;2023-04-24T05:42:08;97413.25;;;13.20
11926;BMP180;6022;48.768;18.608;2023-04-24T05:44:36;97406.69;;;13.27
11926;BMP180;6022;48.768;18.608;2023-04-24T05:47:06;97407.72;;;13.34
11926;BMP180;6022;48.768;18.608;2023-04-24T05:49:33;97409.28;;;13.54
11926;BMP180;6022;48.768;18.608;2023-04-24T05:52:00;97405.75;;;13.64
11926;BMP180;6022;48.768;18.608;2023-04-24T05:54:28;97408.41;;;13.62
11926;BMP180;6022;48.768;18.608;2023-04-24T05:56:58;97388.34;;;14.13
11926;BMP180;6022;48.768;18.608;2023-04-24T05:59:25;97398.69;;;14.38
11926;BMP180;6022;48.768;18.608;2023-04-24T06:01:53;97387.22;;;14.59
11926;BMP180;6022;48.768;18.608;2023-04-24T06:04:20;97404.97;;;14.61
11926;BMP180;6022;48.768;18.608;2023-04-24T06:06:48;97402.31;;;14.70
11926;BMP180;6022;48.768;18.608;2023-04-24T06:09:17;97378.53;;;14.87
11926;BMP180;6022;48.768;18.608;2023-04-24T06:11:45;97395.09;;;14.83
11926;BMP180;6022;48.768;18.608;2023-04-24T06:14:12;97383.00;;;14.85
11926;BMP180;6022;48.768;18.608;2023-04-24T06:16:43;97390.28;;;14.80
11926;BMP180;6022;48.768;18.608;2023-04-24T06:19:10;97380.22;;;14.78
11926;BMP180;6022;48.768;18.608;2023-04-24T06:21:38;97387.59;;;14.81
11926;BMP180;6022;48.768;18.608;2023-04-24T06:24:05;97384.88;;;14.83
11926;BMP180;6022;48.768;18.608;2023-04-24T06:26:33;97388.69;;;14.79
11926;BMP180;6022;48.768;18.608;2023-04-24T06:29:00;97382.09;;;14.76
11926;BMP180;6022;48.768;18.608;2023-04-24T06:31:32;97383.00;;;14.85
11926;BMP180;6022;48.768;18.608;2023-04-24T06:34:11;97380.81;;;14.90
11926;BMP180;6022;48.768;18.608;2023-04-24T06:36:38;97377.00;;;14.94
11926;BMP180;6022;48.768;18.608;2023-04-24T06:39:09;97385.50;;;15.02
11926;BMP180;6022;48.768;18.608;2023-04-24T06:41:37;97381.16;;;14.95
11926;BMP180;6022;48.768;18.608;2023-04-24T06:44:05;97385.00;;;14.99
11926;BMP180;6022;48.768;18.608;2023-04-24T06:46:34;97369.53;;;15.00
11926;BMP180;6022;48.768;18.608;2023-04-24T06:49:06;97388.00;;;14.94
11926;BMP180;6022;48.768;18.608;2023-04-24T06:51:35;97373.19;;;14.98
11926;BMP180;6022;48.768;18.608;2023-04-24T06:54:05;97366.53;;;15.05
11926;BMP180;6022;48.768;18.608;2023-04-24T06:56:45;97376.41;;;15.00
11926;BMP180;6022;48.768;18.608;2023-04-24T06:59:20;97371.56;;;14.97
11926;BMP180;6022;48.768;18.608;2023-04-24T07:01:50;97370.41;;;15.09
11926;BMP180;6022;48.768;18.608;2023-04-24T07:04:21;97368.75;;;15.00
11926;BMP180;6022;48.768;18.608;2023-04-24T07:06:51;97363.03;;;15.06
11926;BMP180;6022;48.768;18.608;2023-04-24T07:09:24;97361.69;;;14.94
11926;BMP180;6022;48.768;18.608;2023-04-24T07:11:53;97369.25;;;14.86
11926;BMP180;6022;48.768;18.608;2023-04-24T07:14:30;97363.88;;;14.89
11926;BMP180;6022;48.768;18.608;2023-04-24T07:17:08;97355.59;;;14.95
11926;BMP180;6022;48.768;18.608;2023-04-24T07:19:38;97361.59;;;15.03
11926;BMP180;6022;48.768;18.608;2023-04-24T07:22:39;97364.47;;;15.08
11926;BMP180;6022;48.768;18.608;2023-04-24T07:25:28;97367.63;;;15.19
11926;BMP180;6022;48.768;18.608;2023-04-24T07:28:13;97360.31;;;15.24
11926;BMP180;6022;48.768;18.608;2023-04-24T07:30:44;97372.47;;;15.30
11926;BMP180;6022;48.768;18.608;2023-04-24T07:33:14;97385.47;;;15.37
11926;BMP180;6022;48.768;18.608;2023-04-24T07:36:11;97356.44;;;15.46
11926;BMP180;6022;48.768;18.608;2023-04-24T07:38:53;97395.88;;;15.43
11926;BMP180;6022;48.768;18.608;2023-04-24T07:41:21;97389.63;;;15.38
11926;BMP180;6022;48.768;18.608;2023-04-24T07:43:53;97357.66;;;15.34
11926;BMP180;6022;48.768;18.608;2023-04-24T07:46:31;97369.13;;;15.30
11926;BMP180;6022;48.768;18.608;2023-04-24T07:49:00;97357.94;;;15.31
11926;BMP180;6022;48.768;18.608;2023-04-24T07:51:40;97362.25;;;15.30
11926;BMP180;6022;48.768;18.608;2023-04-24T07:54:09;97381.03;;;15.21
11926;BMP180;6022;48.768;18.608;2023-04-24T07:56:36;97349.91;;;15.18
11926;BMP180;6022;48.768;18.608;2023-04-24T07:59:06;97366.56;;;15.30
11926;BMP180;6022;48.768;18.608;2023-04-24T08:01:34;97358.41;;;15.26
11926;BMP180;6022;48.768;18.608;2023-04-24T08:04:04;97373.22;;;15.23
11926;BMP180;6022;48.768;18.608;2023-04-24T08:06:32;97336.72;;;15.30
11926;BMP180;6022;48.768;18.608;2023-04-24T08:08:59;97343.88;;;15.27
11926;BMP180;6022;48.768;18.608;2023-04-24T08:11:28;97333.53;;;15.36
11926;BMP180;6022;48.768;18.608;2023-04-24T08:13:58;97349.69;;;15.37
11926;BMP180;6022;48.768;18.608;2023-04-24T08:16:26;97339.91;;;15.32
11926;BMP180;6022;48.768;18.608;2023-04-24T08:18:56;97362.25;;;15.30
11926;BMP180;6022;48.768;18.608;2023-04-24T08:21:28;97346.63;;;15.33
11926;BMP180;6022;48.768;18.608;2023-04-24T08:24:01;97354.59;;;15.30
11926;BMP180;6022;48.768;18.608;2023-04-24T08:26:42;97355.88;;;15.34
11926;BMP180;6022;48.768;18.608;2023-04-24T08:29:12;97355.94;;;15.17
11926;BMP180;6022;48.768;18.608;2023-04-24T08:32:01;97374.56;;;15.10
11926;BMP180;6022;48.768;18.608;2023-04-24T08:34:28;97342.00;;;15.11
11926;BMP180;6022;48.768;18.608;2023-04-24T08:36:56;97358.41;;;15.26
11926;BMP180;6022;48.768;18.608;2023-04-24T08:39:27;97356.09;;;15.15
11926;BMP180;6022;48.768;18.608;2023-04-24T08:41:56;97363.03;;;15.06
11926;BMP180;6022;48.768;18.608;2023-04-24T08:44:23;97380.31;;;15.11
11926;BMP180;6022;48.768;18.608;2023-04-24T08:46:50;97369.84;;;15.14
11926;BMP180;6022;48.768;18.608;2023-04-24T08:49:19;97364.97;;;15.11
11926;BMP180;6022;48.768;18.608;2023-04-24T08:51:55;97374.56;;;15.10
11926;BMP180;6022;48.768;18.608;2023-04-24T08:54:36;97376.41;;;15.00
11926;BMP180;6022;48.768;18.608;2023-04-24T08:57:08;97376.19;;;14.93
11926;BMP180;6022;48.768;18.608;2023-04-24T08:59:38;97388.09;;;14.85
11926;BMP180;6022;48.768;18.608;2023-04-24T09:02:10;97390.19;;;14.89
11926;BMP180;6022;48.768;18.608;2023-04-24T09:04:40;97392.09;;;14.87
11926;BMP180;6022;48.768;18.608;2023-04-24T09:07:14;97399.50;;;14.73
11926;BMP180;6022;48.768;18.608;2023-04-24T09:09:47;97395.34;;;14.55
11926;BMP180;6022;48.768;18.608;2023-04-24T09:12:15;97391.38;;;14.43
11926;BMP180;6022;48.768;18.608;2023-04-24T09:14:42;97402.81;;;14.39
11926;BMP180;6022;48.768;18.608;2023-04-24T09:17:12;97403.72;;;14.47
11926;BMP180;6022;48.768;18.608;2023-04-24T09:19:40;97397.00;;;14.46
11926;BMP180;6022;48.768;18.608;2023-04-24T09:22:09;97390.78;;;14.32
11926;BMP180;6022;48.768;18.608;2023-04-24T09:24:40;97417.25;;;14.31
11926;BMP180;6022;48.768;18.608;2023-04-24T09:27:11;97392.78;;;14.37
11926;BMP180;6022;48.768;18.608;2023-04-24T09:29:53;97398.16;;;14.35
11926;BMP180;6022;48.768;18.608;2023-04-24T09:32:23;97403.59;;;14.22
11926;BMP180;6022;48.768;18.608;2023-04-24T09:35:13;97416.00;;;14.17
11926;BMP180;6022;48.768;18.608;2023-04-24T09:37:45;97400.91;;;13.97
11926;BMP180;6022;48.768;18.608;2023-04-24T09:40:21;97401.44;;;14.00
11926;BMP180;6022;48.768;18.608;2023-04-24T09:42:56;97400.75;;;14.08
11926;BMP180;6022;48.768;18.608;2023-04-24T09:45:35;97403.47;;;13.97
11926;BMP180;6022;48.768;18.608;2023-04-24T09:48:02;97416.19;;;13.97
11926;BMP180;6022;48.768;18.608;2023-04-24T09:50:31;97412.03;;;13.96
11926;BMP180;6022;48.768;18.608;2023-04-24T09:53:05;97408.66;;;13.78
11926;BMP180;6022;48.768;18.608;2023-04-24T09:55:42;97411.06;;;13.80
11926;BMP180;6022;48.768;18.608;2023-04-24T09:58:11;97411.00;;;13.89
11926;BMP180;6022;48.768;18.608;2023-04-24T10:00:38;97411.00;;;13.89
11926;BMP180;6022;48.768;18.608;2023-04-24T10:03:06;97411.28;;;13.86
11926;BMP180;6022;48.768;18.608;2023-04-24T10:05:37;97401.69;;;13.97
11926;BMP180;6022;48.768;18.608;2023-04-24T10:08:11;97412.34;;;13.93
11926;BMP180;6022;48.768;18.608;2023-04-24T10:10:43;97408.00;;;14.03
11926;BMP180;6022;48.768;18.608;2023-04-24T10:13:14;97412.34;;;13.93
11926;BMP180;6022;48.768;18.608;2023-04-24T10:15:43;97411.88;;;14.07
11926;BMP180;6022;48.768;18.608;2023-04-24T10:18:11;97400.81;;;13.89
11926;BMP180;6022;48.768;18.608;2023-04-24T10:20:40;97400.63;;;14.00
11926;BMP180;6022;48.768;18.608;2023-04-24T10:23:07;97410.00;;;14.09
11926;BMP180;6022;48.768;18.608;2023-04-24T10:25:35;97395.53;;;14.00
11926;BMP180;6022;48.768;18.608;2023-04-24T10:28:04;97399.44;;;14.04
11926;BMP180;6022;48.768;18.608;2023-04-24T10:30:35;97398.34;;;13.97
11926;BMP180;6022;48.768;18.608;2023-04-24T10:33:08;97398.53;;;13.86
11926;BMP180;6022;48.768;18.608;2023-04-24T10:35:44;97398.44;;;13.78
11926;BMP180;6022;48.768;18.608;2023-04-24T10:38:15;97403.53;;;13.78
11926;BMP180;6022;48.768;18.608;2023-04-24T10:40:43;97405.56;;;13.75
11926;BMP180;6022;48.768;18.608;2023-04-24T10:43:17;97396.00;;;13.86
11926;BMP180;6022;48.768;18.608;2023-04-24T10:46:09;97385.75;;;13.96
11926;BMP180;6022;48.768;18.608;2023-04-24T10:48:42;97393.69;;;14.02
11926;BMP180;6022;48.768;18.608;2023-04-24T10:51:12;97390.84;;;13.96
11926;BMP180;6022;48.768;18.608;2023-04-24T10:53:40;97391.13;;;14.02
11926;BMP180;6022;48.768;18.608;2023-04-24T10:56:09;97383.16;;;14.05
11926;BMP180;6022;48.768;18.608;2023-04-24T10:58:41;97401.34;;;13.93
11926;BMP180;6022;48.768;18.608;2023-04-24T11:01:31;97388.94;;;13.97
11926;BMP180;6022;48.768;18.608;2023-04-24T11:04:02;97386.03;;;14.02
11926;BMP180;6022;48.768;18.608;2023-04-24T11:09:06;97392.72;;;14.03
11926;BMP180;6022;48.768;18.608;2023-04-24T11:11:38;97393.44;;;14.13
11926;BMP180;6022;48.768;18.608;2023-04-24T11:14:14;97396.31;;;14.10
11926;BMP180;6022;48.768;18.608;2023-04-24T11:16:54;97399.59;;;13.93
11926;BMP180;6022;48.768;18.608;2023-04-24T11:19:25;97399.16;;;13.97
11926;BMP180;6022;48.768;18.608;2023-04-24T11:22:00;97398.47;;;14.05
11926;BMP180;6022;48.768;18.608;2023-04-24T11:24:53;97399.84;;;13.90
11926;BMP180;6022;48.768;18.608;2023-04-24T11:27:22;97394.84;;;13.98
11926;BMP180;6022;48.768;18.608;2023-04-24T11:35:19;97382.13;;;14.25
11926;BMP180;6022;48.768;18.608;2023-04-24T11:37:52;97390.91;;;14.13
11926;BMP180;6022;48.768;18.608;2023-04-24T11:40:42;97389.72;;;14.07
11926;BMP180;6022;48.768;18.608;2023-04-24T11:43:16;97389.59;;;14.09
11926;BMP180;6022;48.768;18.608;2023-04-24T11:45:48;97383.31;;;14.03
11926;BMP180;6022;48.768;18.608;2023-04-24T11:48:21;97381.28;;;14.07
11926;BMP180;6022;48.768;18.608;2023-04-24T11:50:50;97381.75;;;13.93
11926;BMP180;6022;48.768;18.608;2023-04-24T11:53:20;97386.84;;;13.93
11926;BMP180;6022;48.768;18.608;2023-04-24T11:55:51;97382.00;;;13.90
11926;BMP180;6022;48.768;18.608;2023-04-24T11:58:34;97379.19;;;13.93
11926;BMP180;6022;48.768;18.608;2023-04-24T12:01:02;97382.41;;;13.95
11926;BMP180;6022;48.768;18.608;2023-04-24T12:03:30;97380.66;;;13.96
11926;BMP180;6022;48.768;18.608;2023-04-24T12:06:06;97365.19;;;14.06
11926;BMP180;6022;48.768;18.608;2023-04-24T12:08:37;97370.16;;;14.08
11926;BMP180;6022;48.768;18.608;2023-04-24T12:11:06;97363.81;;;14.12
11926;BMP180;6022;48.768;18.608;2023-04-24T12:13:37;97353.63;;;14.12
11926;BMP180;6022;48.768;18.608;2023-04-24T12:16:04;97355.59;;;14.18
11926;BMP180;6022;48.768;18.608;2023-04-24T12:18:32;97359.09;;;14.17
11926;BMP180;6022;48.768;18.608;2023-04-24T12:21:22;97357.41;;;14.08
11926;BMP180;6022;48.768;18.608;2023-04-24T12:23:54;97359.84;;;14.00
11926;BMP180;6022;48.768;18.608;2023-04-24T12:26:22;97360.97;;;13.88
11926;BMP180;6022;48.768;18.608;2023-04-24T12:29:04;97356.09;;;13.95
11926;BMP180;6022;48.768;18.608;2023-04-24T12:31:32;97357.84;;;13.94
11926;BMP180;6022;48.768;18.608;2023-04-24T12:34:00;97358.22;;;13.99
11926;BMP180;6022;48.768;18.608;2023-04-24T12:36:30;97347.63;;;14.03
11926;BMP180;6022;48.768;18.608;2023-04-24T12:39:20;97349.13;;;13.97
11926;BMP180;6022;48.768;18.608;2023-04-24T12:41:59;97345.88;;;14.04
11926;BMP180;6022;48.768;18.608;2023-04-24T12:44:32;97352.00;;;14.11
11926;BMP180;6022;48.768;18.608;2023-04-24T12:47:04;97346.34;;;14.17
11926;BMP180;6022;48.768;18.608;2023-04-24T12:49:33;97345.22;;;14.02
11926;BMP180;6022;48.768;18.608;2023-04-24T12:52:01;97354.63;;;13.92
11926;BMP180;6022;48.768;18.608;2023-04-24T12:54:32;97347.34;;;13.80
11926;BMP180;6022;48.768;18.608;2023-04-24T12:57:03;97353.38;;;13.79
11926;BMP180;6022;48.768;18.608;2023-04-24T12:59:43;97346.91;;;13.84
11926;BMP180;6022;48.768;18.608;2023-04-24T13:02:11;97338.59;;;13.82
11926;BMP180;6022;48.768;18.608;2023-04-24T13:04:39;97339.78;;;13.88
11926;BMP180;6022;48.768;18.608;2023-04-24T13:07:07;97344.72;;;13.89
11926;BMP180;6022;48.768;18.608;2023-04-24T13:09:35;97330.28;;;13.80
11926;BMP180;6022;48.768;18.608;2023-04-24T13:12:02;97327.81;;;13.88
11926;BMP180;6022;48.768;18.608;2023-04-24T13:14:30;97330.28;;;13.80
11926;BMP180;6022;48.768;18.608;2023-04-24T13:16:57;97331.38;;;13.78
11926;BMP180;6022;48.768;18.608;2023-04-24T13:19:26;97338.91;;;13.70
11926;BMP180;6022;48.768;18.608;2023-04-24T13:21:57;97324.34;;;13.62
11926;BMP180;6022;48.768;18.608;2023-04-24T13:24:33;97328.50;;;13.63
11926;BMP180;6022;48.768;18.608;2023-04-24T13:27:04;97322.84;;;13.69
11926;BMP180;6022;48.768;18.608;2023-04-24T13:29:32;97324.31;;;13.72
11926;BMP180;6022;48.768;18.608;2023-04-24T13:32:06;97312.59;;;13.79
11926;BMP180;6022;48.768;18.608;2023-04-24T13:34:34;97309.38;;;13.77
11926;BMP180;6022;48.768;18.608;2023-04-24T13:37:02;97308.28;;;13.79
11926;BMP180;6022;48.768;18.608;2023-04-24T13:39:33;97311.66;;;13.80
11926;BMP180;6022;48.768;18.608;2023-04-24T13:42:00;97315.44;;;13.76
11926;BMP180;6022;48.768;18.608;2023-04-24T13:44:31;97305.06;;;13.77
11926;BMP180;6022;48.768;18.608;2023-04-24T13:46:59;97323.09;;;13.76
11926;BMP180;6022;48.768;18.608;2023-04-24T13:49:27;97311.56;;;13.72
11926;BMP180;6022;48.768;18.608;2023-04-24T13:51:55;97307.63;;;13.77
11926;BMP180;6022;48.768;18.608;2023-04-24T13:54:23;97313.53;;;13.78
11926;BMP180;6022;48.768;18.608;2023-04-24T13:56:56;97307.78;;;13.76
11926;BMP180;6022;48.768;18.608;2023-04-24T13:59:24;97303.50;;;13.76
11926;BMP180;6022;48.768;18.608;2023-04-24T14:01:52;97307.69;;;13.68
11926;BMP180;6022;48.768;18.608;2023-04-24T14:04:24;97301.88;;;13.75
11926;BMP180;6022;48.768;18.608;2023-04-24T14:06:59;97304.22;;;13.86
11926;BMP180;6022;48.768;18.608;2023-04-24T14:09:27;97309.25;;;13.96
11926;BMP180;6022;48.768;18.608;2023-04-24T14:11:54;97304.03;;;13.97
11926;BMP180;6022;48.768;18.608;2023-04-24T14:14:22;97312.91;;;13.93
11926;BMP180;6022;48.768;18.608;2023-04-24T14:16:50;97316.69;;;13.89
11926;BMP180;6022;48.768;18.608;2023-04-24T14:19:17;97306.63;;;13.88
11926;BMP180;6022;48.768;18.608;2023-04-24T14:21:45;97301.81;;;13.85
11926;BMP180;6022;48.768;18.608;2023-04-24T14:24:12;97310.75;;;13.71
11926;BMP180;6022;48.768;18.608;2023-04-24T14:26:42;97303.19;;;13.79
11926;BMP180;6022;48.768;18.608;2023-04-24T14:29:31;97304.81;;;13.80
11926;BMP180;6022;48.768;18.608;2023-04-24T14:32:01;97310.03;;;13.79
11926;BMP180;6022;48.768;18.608;2023-04-24T14:34:34;97307.88;;;13.84